createdAt,value
2018-05-31T00:02:22.279Z,101170.05
2018-05-31T00:04:48.048Z,101165.63
2018-05-31T00:07:13.822Z,101172.84
2018-05-31T00:09:39.571Z,101171.17
2018-05-31T00:12:05.371Z,101171.80
2018-05-31T00:14:31.128Z,101169.31
2018-05-31T00:16:56.920Z,101170.11
2018-05-31T00:19:22.667Z,101166.81
2018-05-31T00:21:48.443Z,101156.77
2018-05-31T00:24:14.207Z,101157.14
2018-05-31T00:26:39.988Z,101155.78
2018-05-31T00:29:05.748Z,101149.37
2018-05-31T00:31:31.647Z,101143.41
2018-05-31T00:33:57.499Z,101148.21
2018-05-31T00:36:23.279Z,101143.38
2018-05-31T00:38:49.037Z,101144.27
2018-05-31T00:41:14.817Z,101138.09
2018-05-31T00:43:40.612Z,101139.48
2018-05-31T00:46:06.408Z,101136.81
2018-05-31T00:48:32.162Z,101133.19
2018-05-31T00:50:57.932Z,101131.82
2018-05-31T00:53:23.714Z,101126.75
2018-05-31T00:56:01.827Z,101133.53
2018-05-31T00:58:27.776Z,101142.66
2018-05-31T01:01:08.702Z,101134.86
2018-05-31T01:03:34.517Z,101136.48
2018-05-31T01:06:00.268Z,101142.91
2018-05-31T01:08:26.035Z,101136.13
2018-05-31T01:10:51.820Z,101134.67
2018-05-31T01:13:17.593Z,101135.63
2018-05-31T01:15:43.384Z,101135.13
2018-05-31T01:18:09.171Z,101128.92
2018-05-31T01:20:34.920Z,101133.96
2018-05-31T01:23:00.698Z,101140.72
2018-05-31T01:25:26.452Z,101137.42
2018-05-31T01:27:52.331Z,101133.09
2018-05-31T01:30:18.095Z,101133.09
2018-05-31T01:32:43.960Z,101130.30
2018-05-31T01:35:09.711Z,101129.67
2018-05-31T01:37:35.488Z,101124.42
2018-05-31T01:40:01.239Z,101125.75
2018-05-31T01:42:27.052Z,101119.27
2018-05-31T01:44:52.804Z,101124.30
2018-05-31T01:47:18.631Z,101125.80
2018-05-31T01:49:44.423Z,101125.30
2018-05-31T01:52:10.228Z,101123.66
2018-05-31T01:54:36.036Z,101126.21
2018-05-31T01:57:01.821Z,101129.38
2018-05-31T01:59:27.576Z,101129.00
2018-05-31T02:01:53.348Z,101140.24
2018-05-31T02:04:19.111Z,101134.58
2018-05-31T02:06:44.876Z,101133.87
2018-05-31T02:09:10.659Z,101131.08
2018-05-31T02:11:36.441Z,101131.36
2018-05-31T02:14:02.192Z,101131.56
2018-05-31T02:16:28.078Z,101132.57
2018-05-31T02:18:53.874Z,101126.61
2018-05-31T02:21:19.631Z,101134.11
2018-05-31T02:23:45.423Z,101133.77
2018-05-31T02:26:11.183Z,101138.90
2018-05-31T02:28:37.038Z,101138.90
2018-05-31T02:31:02.816Z,101138.60
2018-05-31T02:33:28.612Z,101144.43
2018-05-31T02:35:54.388Z,101142.05
2018-05-31T02:38:20.194Z,101143.97
2018-05-31T02:40:45.976Z,101149.50
2018-05-31T02:43:11.908Z,101149.70
2018-05-31T02:45:37.709Z,101149.88
2018-05-31T02:48:03.483Z,101155.08
2018-05-31T02:50:29.251Z,101158.94
2018-05-31T02:52:55.095Z,101161.89
2018-05-31T02:55:20.855Z,101169.75
2018-05-31T02:57:46.661Z,101166.03
2018-05-31T03:00:12.415Z,101174.09
2018-05-31T03:02:38.271Z,101168.02
2018-05-31T03:05:04.035Z,101162.28
2018-05-31T03:07:29.869Z,101160.64
2018-05-31T03:09:55.615Z,101157.31
2018-05-31T03:12:21.595Z,101156.41
2018-05-31T03:14:47.352Z,101158.27
2018-05-31T03:17:13.150Z,101158.44
2018-05-31T03:19:38.919Z,101156.38
2018-05-31T03:22:04.672Z,101152.81
2018-05-31T03:24:30.438Z,101156.69
2018-05-31T03:26:56.222Z,101155.97
2018-05-31T03:29:21.982Z,101155.97
2018-05-31T03:31:48.003Z,101161.92
2018-05-31T03:34:13.785Z,101158.84
2018-05-31T03:36:39.549Z,101156.60
2018-05-31T03:39:05.338Z,101157.10
2018-05-31T03:41:31.091Z,101153.02
2018-05-31T03:43:56.880Z,101157.44
2018-05-31T03:46:22.660Z,101157.15
2018-05-31T03:48:48.423Z,101156.23
2018-05-31T03:51:14.233Z,101154.29
2018-05-31T03:53:40.122Z,101152.37
2018-05-31T03:56:05.907Z,101164.16
2018-05-31T03:58:31.751Z,101163.58
2018-05-31T04:00:57.535Z,101157.62
2018-05-31T04:03:23.291Z,101159.84
2018-05-31T04:05:49.066Z,101159.31
2018-05-31T04:08:14.931Z,101158.67
2018-05-31T04:10:40.735Z,101157.39
2018-05-31T04:13:06.499Z,101165.93
2018-05-31T04:15:32.282Z,101163.98
2018-05-31T04:17:58.022Z,101157.37
2018-05-31T04:20:23.927Z,101157.55
2018-05-31T04:22:49.682Z,101159.17
2018-05-31T04:25:15.468Z,101163.00
2018-05-31T04:27:41.300Z,101160.72
2018-05-31T04:30:07.055Z,101163.64
2018-05-31T04:32:32.819Z,101173.81
2018-05-31T04:34:58.606Z,101166.56
2018-05-31T04:37:24.373Z,101180.44
2018-05-31T04:39:50.148Z,101172.44
2018-05-31T04:42:15.948Z,101176.61
2018-05-31T04:44:41.714Z,101167.82
2018-05-31T04:47:07.542Z,101172.86
2018-05-31T04:49:33.307Z,101176.16
2018-05-31T04:51:59.103Z,101174.65
2018-05-31T04:54:24.901Z,101175.52
2018-05-31T04:56:50.774Z,101181.19
2018-05-31T04:59:16.544Z,101176.56
2018-05-31T05:01:42.324Z,101176.01
2018-05-31T05:04:08.092Z,101176.01
2018-05-31T05:06:33.864Z,101175.31
2018-05-31T05:08:59.639Z,101176.02
2018-05-31T05:11:25.399Z,101183.45
2018-05-31T05:13:51.243Z,101185.45
2018-05-31T05:16:17.126Z,101182.49
2018-05-31T05:18:42.895Z,101188.83
2018-05-31T05:21:08.667Z,101186.86
2018-05-31T05:23:34.419Z,101190.28
2018-05-31T05:26:00.219Z,101199.66
2018-05-31T05:28:25.971Z,101200.08
2018-05-31T05:30:51.881Z,101198.79
2018-05-31T05:33:17.633Z,101203.83
2018-05-31T05:35:43.447Z,101203.58
2018-05-31T05:38:09.258Z,101201.16
2018-05-31T05:40:35.128Z,101197.28
2018-05-31T05:43:01.000Z,101199.87
2018-05-31T05:45:26.747Z,101196.24
2018-05-31T05:47:52.530Z,101193.48
2018-05-31T05:50:18.287Z,101201.86
2018-05-31T05:52:44.062Z,101198.44
2018-05-31T05:55:09.819Z,101198.56
2018-05-31T05:57:35.683Z,101206.73
2018-05-31T06:00:01.579Z,101207.17
2018-05-31T06:02:27.363Z,101204.95
2018-05-31T06:04:53.124Z,101209.05
2018-05-31T06:07:18.891Z,101210.00
2018-05-31T06:09:44.675Z,101208.91
2018-05-31T06:12:10.445Z,101212.05
2018-05-31T06:14:36.324Z,101209.80
2018-05-31T06:17:02.143Z,101212.70
2018-05-31T06:19:27.956Z,101214.72
2018-05-31T06:21:53.795Z,101216.41
2018-05-31T06:24:19.547Z,101216.77
2018-05-31T06:26:45.327Z,101216.80
2018-05-31T06:29:11.115Z,101214.32
2018-05-31T06:31:36.897Z,101222.38
2018-05-31T06:34:02.659Z,101221.59
2018-05-31T06:36:28.451Z,101221.22
2018-05-31T06:38:54.243Z,101218.55
2018-05-31T06:41:20.175Z,101211.30
2018-05-31T06:43:46.031Z,101222.52
2018-05-31T06:46:11.803Z,101221.11
2018-05-31T06:48:37.575Z,101215.44
2018-05-31T06:51:03.323Z,101220.51
2018-05-31T06:53:29.119Z,101219.18
2018-05-31T06:55:54.859Z,101217.67
2018-05-31T06:58:20.649Z,101226.32
2018-05-31T07:00:46.431Z,101221.16
2018-05-31T07:03:12.208Z,101226.53
2018-05-31T07:05:38.000Z,101224.46
2018-05-31T07:08:03.799Z,101227.63
2018-05-31T07:10:29.535Z,101226.09
2018-05-31T07:12:55.353Z,101228.77
2018-05-31T07:15:21.154Z,101222.05
2018-05-31T07:17:46.902Z,101226.45
2018-05-31T07:20:12.668Z,101233.61
2018-05-31T07:22:38.406Z,101228.12
2018-05-31T07:25:04.163Z,101232.53
2018-05-31T07:27:30.589Z,101237.66
2018-05-31T07:29:56.487Z,101231.34
2018-05-31T07:32:22.270Z,101240.50
2018-05-31T07:34:48.030Z,101235.32
2018-05-31T07:37:13.788Z,101239.02
2018-05-31T07:39:39.559Z,101248.28
2018-05-31T07:42:05.547Z,101242.68
2018-05-31T07:44:31.311Z,101255.38
2018-05-31T07:46:57.059Z,101238.54
2018-05-31T07:49:22.820Z,101246.13
2018-05-31T07:51:48.559Z,101247.05
2018-05-31T07:54:14.353Z,101248.84
2018-05-31T07:56:40.144Z,101248.09
2018-05-31T07:59:06.527Z,101244.94
2018-05-31T08:01:32.300Z,101242.52
2018-05-31T08:03:58.100Z,101245.70
2018-05-31T08:06:24.496Z,101244.70
2018-05-31T08:08:50.284Z,101248.51
2018-05-31T08:11:16.059Z,101248.25
2018-05-31T08:13:41.825Z,101250.87
2018-05-31T08:16:07.596Z,101254.65
2018-05-31T08:18:33.387Z,101253.73
2018-05-31T08:20:59.166Z,101251.84
2018-05-31T08:23:24.965Z,101253.45
2018-05-31T08:25:50.848Z,101254.65
2018-05-31T08:28:16.652Z,101257.81
2018-05-31T08:30:42.403Z,101258.73
2018-05-31T08:33:08.151Z,101265.25
2018-05-31T08:35:33.988Z,101270.34
2018-05-31T08:37:59.828Z,101270.13
2018-05-31T08:40:25.631Z,101259.70
2018-05-31T08:42:51.469Z,101263.91
2018-05-31T08:45:17.231Z,101258.41
2018-05-31T08:47:42.993Z,101261.31
2018-05-31T08:50:08.779Z,101259.70
2018-05-31T08:52:34.515Z,101264.37
2018-05-31T08:55:00.288Z,101274.55
2018-05-31T08:57:26.193Z,101270.98
2018-05-31T08:59:51.959Z,101272.84
2018-05-31T09:02:17.700Z,101271.13
2018-05-31T09:04:43.469Z,101265.20
2018-05-31T09:07:09.220Z,101261.55
2018-05-31T09:09:34.983Z,101264.03
2018-05-31T09:12:00.751Z,101260.72
2018-05-31T09:14:26.522Z,101263.65
2018-05-31T09:16:52.275Z,101265.20
2018-05-31T09:19:18.020Z,101255.33
2018-05-31T09:21:43.791Z,101250.87
2018-05-31T09:24:09.799Z,101250.93
2018-05-31T09:26:35.556Z,101244.49
2018-05-31T09:29:01.328Z,101249.05
2018-05-31T09:31:27.182Z,101244.86
2018-05-31T09:33:52.964Z,101246.34
2018-05-31T09:36:18.706Z,101247.56
2018-05-31T09:38:44.459Z,101247.41
2018-05-31T09:41:10.344Z,101248.40
2018-05-31T09:43:36.045Z,101243.13
2018-05-31T09:46:01.807Z,101250.41
2018-05-31T09:48:27.652Z,101246.02
2018-05-31T09:50:53.784Z,101247.02
2018-05-31T09:53:19.553Z,101248.44
2018-05-31T09:55:45.323Z,101248.80
2018-05-31T09:58:11.081Z,101245.80
2018-05-31T10:00:36.872Z,101241.30
2018-05-31T10:03:02.612Z,101253.43
2018-05-31T10:05:28.384Z,101249.03
2018-05-31T10:07:54.124Z,101241.62
2018-05-31T10:10:19.923Z,101246.64
2018-05-31T10:12:45.663Z,101237.64
2018-05-31T10:15:11.436Z,101237.41
2018-05-31T10:17:37.297Z,101239.83
2018-05-31T10:20:03.094Z,101234.27
2018-05-31T10:22:28.843Z,101226.72
2018-05-31T10:24:54.624Z,101228.35
2018-05-31T10:27:20.407Z,101229.09
2018-05-31T10:29:46.148Z,101228.52
2018-05-31T10:32:11.928Z,101234.21
2018-05-31T10:34:37.695Z,101229.22
2018-05-31T10:37:03.447Z,101229.80
2018-05-31T10:42:01.829Z,101225.34
2018-05-31T10:44:27.595Z,101234.87
2018-05-31T10:46:53.367Z,101227.67
2018-05-31T10:49:19.134Z,101216.39
2018-05-31T10:51:44.950Z,101221.66
2018-05-31T10:54:10.663Z,101221.55
2018-05-31T10:56:36.501Z,101223.22
2018-05-31T10:59:02.255Z,101211.53
2018-05-31T11:01:28.016Z,101216.03
2018-05-31T11:03:53.764Z,101213.48
2018-05-31T11:06:19.527Z,101210.63
2018-05-31T11:08:45.275Z,101210.22
2018-05-31T11:11:11.059Z,101209.09
2018-05-31T11:13:36.812Z,101206.89
2018-05-31T11:16:02.587Z,101207.87
2018-05-31T11:18:28.335Z,101194.91
2018-05-31T11:20:54.171Z,101201.86
2018-05-31T11:23:19.914Z,101206.13
2018-05-31T11:25:45.680Z,101200.66
2018-05-31T11:28:11.432Z,101192.87
2018-05-31T11:30:37.199Z,101194.48
2018-05-31T11:33:02.971Z,101193.98
2018-05-31T11:35:28.732Z,101193.96
2018-05-31T11:37:54.495Z,101192.08
2018-05-31T11:40:20.310Z,101192.02
2018-05-31T11:42:46.051Z,101192.78
2018-05-31T11:45:11.978Z,101179.37
2018-05-31T11:47:37.886Z,101184.07
2018-05-31T11:50:03.694Z,101177.75
2018-05-31T11:52:29.434Z,101170.16
2018-05-31T11:54:55.235Z,101179.87
2018-05-31T11:57:21.035Z,101174.62
2018-05-31T11:59:46.784Z,101162.80
2018-05-31T12:02:12.683Z,101170.52
2018-05-31T12:04:38.421Z,101155.49
2018-05-31T12:07:04.191Z,101160.12
2018-05-31T12:09:29.943Z,101160.06
2018-05-31T12:11:55.751Z,101148.08
2018-05-31T12:14:21.489Z,101158.77
2018-05-31T12:16:47.291Z,101156.23
2018-05-31T12:19:13.044Z,101153.09
2018-05-31T12:21:38.827Z,101145.04
2018-05-31T12:24:04.574Z,101144.51
2018-05-31T12:26:30.333Z,101143.67
2018-05-31T12:28:56.127Z,101154.05
2018-05-31T12:31:21.907Z,101147.98
2018-05-31T12:33:47.723Z,101143.38
2018-05-31T12:36:13.476Z,101141.70
2018-05-31T12:38:39.214Z,101136.22
2018-05-31T12:41:04.985Z,101141.34
2018-05-31T12:43:30.736Z,101139.33
2018-05-31T12:45:56.544Z,101139.15
2018-05-31T12:48:22.290Z,101140.00
2018-05-31T12:50:48.190Z,101146.69
2018-05-31T12:53:14.087Z,101140.42
2018-05-31T12:55:39.836Z,101134.63
2018-05-31T12:58:05.607Z,101136.68
2018-05-31T13:00:31.436Z,101136.95
2018-05-31T13:02:57.219Z,101136.58
2018-05-31T13:05:22.978Z,101133.62
2018-05-31T13:07:48.739Z,101132.41
2018-05-31T13:10:14.482Z,101132.50
2018-05-31T13:12:40.234Z,101126.91
2018-05-31T13:15:05.983Z,101132.03
2018-05-31T13:17:31.768Z,101131.80
2018-05-31T13:19:57.524Z,101129.05
2018-05-31T13:22:23.307Z,101124.87
2018-05-31T13:24:49.066Z,101121.20
2018-05-31T13:27:14.820Z,101122.63
2018-05-31T13:29:40.551Z,101121.03
2018-05-31T13:32:06.391Z,101123.02
2018-05-31T13:34:32.140Z,101117.09
2018-05-31T13:36:57.926Z,101118.06
2018-05-31T13:39:23.675Z,101112.70
2018-05-31T13:41:49.443Z,101113.44
2018-05-31T13:44:15.191Z,101110.98
2018-05-31T13:46:40.971Z,101104.97
2018-05-31T13:49:06.727Z,101106.98
2018-05-31T13:51:32.619Z,101104.30
2018-05-31T13:53:58.354Z,101107.72
2018-05-31T13:56:24.143Z,101103.62
2018-05-31T13:58:49.913Z,101095.06
2018-05-31T14:01:15.659Z,101096.44
2018-05-31T14:03:41.427Z,101094.01
2018-05-31T14:06:07.295Z,101093.72
2018-05-31T14:08:33.067Z,101088.70
2018-05-31T14:10:58.819Z,101087.22
2018-05-31T14:13:24.587Z,101084.34
2018-05-31T14:15:50.435Z,101083.12
2018-05-31T14:18:16.996Z,101091.67
2018-05-31T14:20:42.743Z,101086.44
2018-05-31T14:23:08.508Z,101080.52
2018-05-31T14:25:34.390Z,101076.97
2018-05-31T14:28:00.172Z,101068.92
2018-05-31T14:30:25.920Z,101070.81
2018-05-31T14:32:51.765Z,101066.49
2018-05-31T14:35:17.632Z,101070.63
2018-05-31T14:37:43.390Z,101067.67
2018-05-31T14:40:09.152Z,101067.25
2018-05-31T14:42:34.916Z,101068.55
2018-05-31T14:45:00.742Z,101065.42
2018-05-31T14:47:26.655Z,101069.46
2018-05-31T14:49:52.399Z,101066.02
2018-05-31T14:52:18.169Z,101061.71
2018-05-31T14:54:43.928Z,101067.39
2018-05-31T14:57:09.668Z,101076.80
2018-05-31T14:59:35.610Z,101074.83
2018-05-31T15:02:01.456Z,101078.66
2018-05-31T15:04:27.197Z,101085.34
2018-05-31T15:06:52.959Z,101083.58
2018-05-31T15:09:18.736Z,101085.52
2018-05-31T15:11:44.484Z,101088.61
2018-05-31T15:14:10.267Z,101096.44
2018-05-31T15:16:36.096Z,101088.37
2018-05-31T15:19:01.871Z,101086.27
2018-05-31T15:21:27.623Z,101088.83
2018-05-31T15:23:53.392Z,101091.88
2018-05-31T15:26:19.149Z,101089.33
2018-05-31T15:28:44.908Z,101091.08
2018-05-31T15:31:10.661Z,101090.62
2018-05-31T15:33:36.663Z,101089.80
2018-05-31T15:36:02.418Z,101081.97
2018-05-31T15:38:28.272Z,101077.78
2018-05-31T15:40:54.079Z,101078.48
2018-05-31T15:43:19.852Z,101083.65
2018-05-31T15:45:45.613Z,101073.64
2018-05-31T15:48:11.411Z,101076.14
2018-05-31T15:50:37.177Z,101076.65
2018-05-31T15:53:02.960Z,101075.59
2018-05-31T15:55:28.725Z,101075.57
2018-05-31T15:57:54.480Z,101077.22
2018-05-31T16:00:20.347Z,101077.22
2018-05-31T16:02:46.076Z,101072.39
2018-05-31T16:05:11.852Z,101074.54
2018-05-31T16:07:37.728Z,101071.58
2018-05-31T16:10:03.511Z,101075.04
2018-05-31T16:12:29.287Z,101073.04
2018-05-31T16:14:55.065Z,101076.77
2018-05-31T16:17:20.845Z,101070.75
2018-05-31T16:19:46.651Z,101075.84
2018-05-31T16:22:12.396Z,101068.55
2018-05-31T16:24:38.184Z,101076.57
2018-05-31T16:27:03.935Z,101069.13
2018-05-31T16:29:29.725Z,101072.28
2018-05-31T16:31:55.503Z,101076.02
2018-05-31T16:34:21.353Z,101079.83
2018-05-31T16:36:47.102Z,101074.25
2018-05-31T16:39:12.843Z,101075.75
2018-05-31T16:41:38.647Z,101077.13
2018-05-31T16:44:04.424Z,101083.56
2018-05-31T16:46:30.208Z,101082.54
2018-05-31T16:48:56.053Z,101081.69
2018-05-31T16:51:21.787Z,101073.55
2018-05-31T16:53:47.553Z,101072.22
2018-05-31T16:56:13.393Z,101067.78
2018-05-31T16:58:39.235Z,101070.55
2018-05-31T17:01:05.051Z,101073.36
2018-05-31T17:03:30.823Z,101071.11
2018-05-31T17:05:56.584Z,101065.88
2018-05-31T17:08:22.344Z,101069.75
2018-05-31T17:10:48.087Z,101075.89
2018-05-31T17:13:13.836Z,101079.09
2018-05-31T17:15:39.603Z,101080.17
2018-05-31T17:18:05.371Z,101072.75
2018-05-31T17:20:31.416Z,101071.37
2018-05-31T17:22:57.175Z,101076.92
2018-05-31T17:25:22.938Z,101069.44
2018-05-31T17:27:48.690Z,101076.72
2018-05-31T17:30:14.482Z,101072.02
2018-05-31T17:32:40.215Z,101070.86
2018-05-31T17:35:05.984Z,101066.11
2018-05-31T17:37:31.736Z,101067.95
2018-05-31T17:39:57.516Z,101056.40
2018-05-31T17:42:23.295Z,101063.82
2018-05-31T17:44:49.079Z,101061.19
2018-05-31T17:47:14.828Z,101061.78
2018-05-31T17:49:40.587Z,101067.98
2018-05-31T17:52:06.355Z,101070.56
2018-05-31T17:54:32.156Z,101073.34
2018-05-31T17:56:58.039Z,101081.64
2018-05-31T17:59:26.258Z,101078.38
2018-05-31T18:01:52.048Z,101082.24
2018-05-31T18:04:17.867Z,101074.08
2018-05-31T18:06:43.710Z,101087.73
2018-05-31T18:09:09.499Z,101096.52
2018-05-31T18:11:35.257Z,101099.70
2018-05-31T18:14:01.032Z,101097.55
2018-05-31T18:16:26.804Z,101097.81
2018-05-31T18:18:52.563Z,101103.10
2018-05-31T18:21:18.349Z,101109.38
2018-05-31T18:23:44.116Z,101113.23
2018-05-31T18:26:09.901Z,101110.90
2018-05-31T18:28:35.641Z,101110.60
2018-05-31T18:31:01.395Z,101108.73
2018-05-31T18:33:27.159Z,101113.00
2018-05-31T18:35:52.914Z,101113.06
2018-05-31T18:38:18.696Z,101112.88
2018-05-31T18:40:44.476Z,101119.46
2018-05-31T18:43:10.244Z,101123.56
2018-05-31T18:45:35.999Z,101124.58
2018-05-31T18:48:01.771Z,101121.11
2018-05-31T18:50:27.831Z,101128.70
2018-05-31T18:52:53.895Z,101129.81
2018-05-31T18:55:19.620Z,101133.31
2018-05-31T18:57:45.394Z,101135.11
2018-05-31T19:00:11.255Z,101129.48
2018-05-31T19:02:37.000Z,101136.55
2018-05-31T19:05:02.752Z,101140.23
2018-05-31T19:07:28.530Z,101138.63
2018-05-31T19:09:54.280Z,101148.69
2018-05-31T19:12:26.347Z,101156.71
2018-05-31T19:14:52.195Z,101157.27
2018-05-31T19:17:18.011Z,101152.23
2018-05-31T19:19:50.031Z,101154.03
2018-05-31T19:22:15.975Z,101163.78
2018-05-31T19:24:47.923Z,101158.05
2018-05-31T19:27:13.699Z,101165.55
2018-05-31T19:29:39.448Z,101170.26
2018-05-31T19:32:05.218Z,101180.31
2018-05-31T19:34:31.000Z,101178.92
2018-05-31T19:37:02.788Z,101180.73
2018-05-31T19:39:28.539Z,101172.85
2018-05-31T19:41:54.348Z,101177.50
2018-05-31T19:44:26.281Z,101181.77
2018-05-31T19:46:52.044Z,101183.98
2018-05-31T19:49:17.827Z,101182.11
2018-05-31T19:51:49.683Z,101184.34
2018-05-31T19:54:15.455Z,101184.77
2018-05-31T19:56:41.250Z,101189.48
2018-05-31T19:59:13.240Z,101188.94
2018-05-31T20:01:45.324Z,101187.66
2018-05-31T20:04:11.071Z,101181.94
2018-05-31T20:06:36.836Z,101183.21
2018-05-31T20:09:02.631Z,101186.55
2018-05-31T20:11:28.443Z,101186.78
2018-05-31T20:13:54.214Z,101184.81
2018-05-31T20:16:20.031Z,101190.00
2018-05-31T20:18:45.832Z,101186.63
2018-05-31T20:21:11.657Z,101194.59
2018-05-31T20:23:37.450Z,101193.22
2018-05-31T20:26:03.210Z,101196.33
2018-05-31T20:28:29.019Z,101195.64
2018-05-31T20:30:54.810Z,101187.59
2018-05-31T20:33:20.585Z,101194.50
2018-05-31T20:35:46.329Z,101182.98
2018-05-31T20:38:12.109Z,101183.28
2018-05-31T20:40:37.906Z,101180.55
2018-05-31T20:43:03.701Z,101183.34
2018-05-31T20:45:44.415Z,101183.38
2018-05-31T20:48:10.191Z,101189.80
2018-05-31T20:50:35.977Z,101184.12
2018-05-31T20:53:01.741Z,101186.23
2018-05-31T20:55:27.512Z,101172.78
2018-05-31T20:57:53.346Z,101181.94
2018-05-31T21:00:19.083Z,101177.82
2018-05-31T21:02:44.876Z,101176.70
2018-05-31T21:05:10.635Z,101175.78
2018-05-31T21:07:36.488Z,101176.42
2018-05-31T21:10:02.264Z,101171.25
2018-05-31T21:12:28.030Z,101173.23
2018-05-31T21:14:53.791Z,101175.52
2018-05-31T21:17:19.571Z,101168.21
2018-05-31T21:19:45.360Z,101170.80
2018-05-31T21:22:11.102Z,101176.56
2018-05-31T21:27:31.680Z,101177.70
2018-05-31T21:29:57.468Z,101181.62
2018-05-31T21:32:23.216Z,101175.23
2018-05-31T21:34:49.348Z,101176.98
2018-05-31T21:37:15.114Z,101175.04
2018-05-31T21:39:40.932Z,101176.08
2018-05-31T21:42:06.756Z,101180.19
2018-05-31T21:44:32.554Z,101184.92
2018-05-31T21:46:58.296Z,101184.62
2018-05-31T21:49:24.063Z,101184.52
2018-05-31T21:51:49.935Z,101184.44
2018-05-31T21:54:15.695Z,101178.72
2018-05-31T21:56:41.515Z,101184.78
2018-05-31T21:59:07.299Z,101183.98
2018-05-31T22:01:33.054Z,101178.20
2018-05-31T22:03:58.807Z,101177.17
2018-05-31T22:06:24.647Z,101177.48
2018-05-31T22:08:50.411Z,101178.10
2018-05-31T22:11:16.182Z,101178.38
2018-05-31T22:13:41.956Z,101186.63
2018-05-31T22:16:07.723Z,101179.32
2018-05-31T22:18:33.507Z,101178.20
2018-05-31T22:20:59.253Z,101169.66
2018-05-31T22:23:25.104Z,101165.42
2018-05-31T22:25:50.843Z,101167.45
2018-05-31T22:28:16.952Z,101169.22
2018-05-31T22:30:42.723Z,101167.78
2018-05-31T22:33:08.577Z,101168.47
2018-05-31T22:35:34.364Z,101166.10
2018-05-31T22:38:00.119Z,101164.96
2018-05-31T22:40:25.870Z,101154.12
2018-05-31T22:42:51.627Z,101161.31
2018-05-31T22:45:17.375Z,101165.95
2018-05-31T22:47:43.165Z,101157.08
2018-05-31T22:50:09.087Z,101162.23
2018-05-31T22:52:34.876Z,101170.04
2018-05-31T22:55:00.627Z,101172.39
2018-05-31T22:57:26.379Z,101167.26
2018-05-31T22:59:52.277Z,101177.42
2018-05-31T23:02:18.036Z,101176.80
2018-05-31T23:04:43.790Z,101176.16
2018-05-31T23:07:09.820Z,101186.63
2018-05-31T23:09:35.568Z,101186.73
2018-05-31T23:12:01.447Z,101187.44
2018-05-31T23:14:27.204Z,101187.30
2018-05-31T23:16:52.951Z,101188.23
2018-05-31T23:19:18.747Z,101189.45
2018-05-31T23:21:44.507Z,101201.14
2018-05-31T23:24:10.260Z,101192.93
2018-05-31T23:26:36.057Z,101197.95
2018-05-31T23:29:02.012Z,101201.33
2018-05-31T23:31:27.787Z,101198.04
2018-05-31T23:33:53.678Z,101199.88
2018-05-31T23:36:19.437Z,101200.89
2018-05-31T23:38:45.204Z,101194.69
2018-05-31T23:41:10.990Z,101200.24
2018-05-31T23:43:36.739Z,101199.71
2018-05-31T23:46:02.507Z,101198.77
2018-05-31T23:48:28.304Z,101200.09
2018-05-31T23:50:54.055Z,101197.31
2018-05-31T23:53:19.823Z,101193.78
2018-05-31T23:55:45.579Z,101191.50
2018-05-31T23:58:11.414Z,101187.20
